createdAt,value
2022-12-31T00:00:18.960Z,99999.81
2022-12-31T00:01:22.878Z,100000.59
2022-12-31T00:02:25.999Z,100004.06
2022-12-31T00:03:28.525Z,100007.69
2022-12-31T00:04:31.445Z,100011.97
2022-12-31T00:05:34.914Z,100009.34
2022-12-31T00:06:37.673Z,100013.28
2022-12-31T00:08:41.113Z,100018.63
2022-12-31T00:09:44.131Z,100012.28
2022-12-31T00:10:46.351Z,100015.75
2022-12-31T00:11:48.864Z,100015.00
2022-12-31T00:12:51.059Z,100014.22
2022-12-31T00:13:53.718Z,100011.28
2022-12-31T00:14:55.887Z,100011.28
2022-12-31T00:16:12.456Z,100012.09
2022-12-31T00:17:20.176Z,100008.63
2022-12-31T00:18:22.332Z,99999.19
2022-12-31T00:19:24.683Z,100017.44
2022-12-31T00:20:26.872Z,100018.16
2022-12-31T00:21:30.879Z,100018.25
2022-12-31T00:22:33.665Z,100021.88
2022-12-31T00:23:36.819Z,100020.66
2022-12-31T00:24:41.395Z,100014.53
2022-12-31T00:25:43.738Z,100016.28
2022-12-31T00:26:46.156Z,100019.19
2022-12-31T00:27:49.134Z,100015.91
2022-12-31T00:28:53.087Z,100016.78
2022-12-31T00:29:58.300Z,100019.47
2022-12-31T00:31:29.449Z,100034.47
2022-12-31T00:32:31.792Z,100037.34
2022-12-31T00:33:33.986Z,100044.03
2022-12-31T00:34:37.284Z,100046.69
2022-12-31T00:35:39.641Z,100043.16
2022-12-31T00:36:42.591Z,100036.69
2022-12-31T00:37:44.951Z,100039.25
2022-12-31T00:38:49.837Z,100040.09
2022-12-31T00:39:52.025Z,100040.66
2022-12-31T00:40:55.362Z,100041.59
2022-12-31T00:41:57.726Z,100053.88
2022-12-31T00:43:00.129Z,100048.56
2022-12-31T00:44:02.430Z,100051.88
2022-12-31T00:45:04.838Z,100050.81
2022-12-31T00:46:08.079Z,100059.03
2022-12-31T00:47:10.680Z,100057.72
2022-12-31T00:48:12.808Z,100062.00
2022-12-31T00:49:15.201Z,100062.06
2022-12-31T00:50:17.362Z,100067.69
2022-12-31T00:51:22.083Z,100061.59
2022-12-31T00:52:24.630Z,100063.56
2022-12-31T00:53:27.967Z,100075.19
2022-12-31T00:54:30.517Z,100065.97
2022-12-31T00:55:32.692Z,100065.50
2022-12-31T00:56:34.948Z,100069.97
2022-12-31T00:57:37.479Z,100071.88
2022-12-31T00:58:40.252Z,100077.31
2022-12-31T00:59:42.399Z,100074.38
2022-12-31T01:00:44.781Z,100062.91
2022-12-31T01:01:47.184Z,100073.69
2022-12-31T01:02:49.921Z,100070.16
2022-12-31T01:03:57.749Z,100075.66
2022-12-31T01:04:59.932Z,100080.69
2022-12-31T01:06:02.309Z,100070.91
2022-12-31T01:07:04.482Z,100079.72
2022-12-31T01:08:06.900Z,100085.72
2022-12-31T01:09:10.744Z,100079.59
2022-12-31T01:10:12.953Z,100087.59
2022-12-31T01:11:28.964Z,100082.47
2022-12-31T01:12:31.186Z,100086.03
2022-12-31T01:13:34.021Z,100083.47
2022-12-31T01:14:36.216Z,100083.56
2022-12-31T01:15:39.413Z,100079.19
2022-12-31T01:16:47.909Z,100083.47
2022-12-31T01:17:50.225Z,100093.00
2022-12-31T01:18:53.158Z,100094.84
2022-12-31T01:19:55.526Z,100093.88
2022-12-31T01:21:03.246Z,100091.22
2022-12-31T01:22:05.574Z,100092.88
2022-12-31T01:23:09.570Z,100085.72
2022-12-31T01:24:12.693Z,100084.00
2022-12-31T01:25:15.060Z,100090.41
2022-12-31T01:26:19.261Z,100083.25
2022-12-31T01:27:21.599Z,100084.38
2022-12-31T01:28:23.924Z,100084.38
2022-12-31T01:29:26.245Z,100082.47
2022-12-31T01:30:28.927Z,100092.19
2022-12-31T01:31:31.100Z,100095.50
2022-12-31T01:32:33.587Z,100089.69
2022-12-31T01:33:36.892Z,100093.50
2022-12-31T01:34:39.054Z,100099.38
2022-12-31T01:35:41.582Z,100096.59
2022-12-31T01:36:44.498Z,100103.50
2022-12-31T01:37:46.865Z,100116.53
2022-12-31T01:38:49.838Z,100113.72
2022-12-31T01:39:51.974Z,100112.91
2022-12-31T01:40:54.332Z,100118.31
2022-12-31T01:41:56.720Z,100124.41
2022-12-31T01:42:58.981Z,100109.97
2022-12-31T01:44:27.479Z,100111.78
2022-12-31T01:45:29.692Z,100097.75
2022-12-31T01:46:52.153Z,100110.19
2022-12-31T01:47:58.199Z,100118.47
2022-12-31T01:49:08.788Z,100128.25
2022-12-31T01:50:31.653Z,100113.81
2022-12-31T01:51:35.090Z,100107.78
2022-12-31T01:52:42.308Z,100112.06
2022-12-31T01:53:44.743Z,100105.19
2022-12-31T01:54:56.241Z,100110.34
2022-12-31T01:56:00.177Z,100115.69
2022-12-31T01:57:03.692Z,100126.66
2022-12-31T01:58:14.148Z,100124.63
2022-12-31T01:59:18.928Z,100121.16
2022-12-31T02:00:21.209Z,100134.78
2022-12-31T02:01:31.208Z,100140.53
2022-12-31T02:02:33.677Z,100134.19
2022-12-31T02:03:37.122Z,100126.28
2022-12-31T02:04:39.626Z,100120.94
2022-12-31T02:06:15.877Z,100129.75
2022-12-31T02:07:18.045Z,100129.84
2022-12-31T02:08:22.039Z,100135.94
2022-12-31T02:09:24.486Z,100127.13
2022-12-31T02:10:26.675Z,100111.34
2022-12-31T02:11:36.477Z,100124.03
2022-12-31T02:12:39.193Z,100117.09
2022-12-31T02:13:41.551Z,100116.75
2022-12-31T02:14:50.718Z,100127.31
2022-12-31T02:16:34.120Z,100129.19
2022-12-31T02:17:50.377Z,100120.09
2022-12-31T02:19:04.343Z,100118.47
2022-12-31T02:20:06.827Z,100123.91
2022-12-31T02:21:41.081Z,100122.06
2022-12-31T02:23:05.080Z,100117.41
2022-12-31T02:24:22.310Z,100128.00
2022-12-31T02:25:57.787Z,100111.88
2022-12-31T02:27:26.019Z,100119.28
2022-12-31T02:28:47.009Z,100118.81
2022-12-31T02:30:15.497Z,100119.41
2022-12-31T02:31:26.380Z,100100.09
2022-12-31T02:32:55.189Z,100123.44
2022-12-31T02:34:13.728Z,100118.44
2022-12-31T02:35:24.988Z,100122.06
2022-12-31T02:36:32.207Z,100122.00
2022-12-31T02:37:37.943Z,100122.06
2022-12-31T02:38:43.594Z,100116.44
2022-12-31T02:39:47.422Z,100117.13
2022-12-31T02:40:50.224Z,100118.72
2022-12-31T02:41:52.975Z,100119.59
2022-12-31T02:42:55.854Z,100122.25
2022-12-31T02:43:58.124Z,100113.00
2022-12-31T02:45:00.494Z,100117.38
2022-12-31T02:46:23.265Z,100116.13
2022-12-31T02:47:43.747Z,100118.69
2022-12-31T02:48:48.753Z,100112.19
2022-12-31T02:50:13.881Z,100119.06
2022-12-31T02:51:39.905Z,100121.53
2022-12-31T02:53:12.302Z,100121.38
2022-12-31T02:54:33.775Z,100119.72
2022-12-31T02:56:01.413Z,100113.34
2022-12-31T02:57:30.962Z,100111.47
2022-12-31T02:59:06.869Z,100118.56
2022-12-31T03:00:34.043Z,100122.84
2022-12-31T03:01:59.911Z,100124.13
2022-12-31T03:03:04.083Z,100126.25
2022-12-31T03:04:25.076Z,100123.91
2022-12-31T03:05:30.849Z,100131.88
2022-12-31T03:06:34.193Z,100141.00
2022-12-31T03:07:36.611Z,100138.22
2022-12-31T03:09:02.087Z,100134.63
2022-12-31T03:10:04.822Z,100123.91
2022-12-31T03:11:26.923Z,100120.22
2022-12-31T03:12:47.659Z,100122.66
2022-12-31T03:13:49.933Z,100129.09
2022-12-31T03:14:52.157Z,100135.53
2022-12-31T03:15:54.570Z,100130.28
2022-12-31T03:16:56.852Z,100135.19
2022-12-31T03:18:02.381Z,100132.59
2022-12-31T03:19:23.830Z,100126.53
2022-12-31T03:20:49.555Z,100128.31
2022-12-31T03:22:24.363Z,100125.50
2022-12-31T03:23:33.692Z,100136.06
2022-12-31T03:24:54.740Z,100122.84
2022-12-31T03:25:57.260Z,100116.63
2022-12-31T03:27:00.635Z,100120.00
2022-12-31T03:28:06.153Z,100120.16
2022-12-31T03:29:08.509Z,100126.09
2022-12-31T03:30:12.073Z,100121.00
2022-12-31T03:31:14.308Z,100131.09
2022-12-31T03:32:16.906Z,100137.19
2022-12-31T03:33:19.511Z,100129.97
2022-12-31T03:34:21.872Z,100141.53
2022-12-31T03:35:25.867Z,100133.66
2022-12-31T03:36:28.125Z,100137.25
2022-12-31T03:37:30.310Z,100138.06
2022-12-31T03:38:34.249Z,100124.63
2022-12-31T03:39:36.609Z,100126.22
2022-12-31T03:40:44.727Z,100118.19
2022-12-31T03:41:46.938Z,100127.75
2022-12-31T03:42:49.198Z,100129.03
2022-12-31T03:43:51.733Z,100128.16
2022-12-31T03:44:53.923Z,100130.75
2022-12-31T03:45:58.705Z,100132.50
2022-12-31T03:47:01.637Z,100128.25
2022-12-31T03:48:06.093Z,100129.84
2022-12-31T03:49:08.744Z,100127.09
2022-12-31T03:50:13.861Z,100123.41
2022-12-31T03:51:16.834Z,100124.44
2022-12-31T03:52:19.254Z,100131.38
2022-12-31T03:53:21.461Z,100130.41
2022-12-31T03:54:23.996Z,100131.22
2022-12-31T03:55:26.184Z,100130.41
2022-12-31T03:56:28.361Z,100134.75
2022-12-31T03:57:30.756Z,100123.41
2022-12-31T03:58:32.916Z,100127.50
2022-12-31T03:59:35.543Z,100123.13
2022-12-31T04:00:37.782Z,100120.28
2022-12-31T04:01:41.638Z,100105.25
2022-12-31T04:02:44.449Z,100107.00
2022-12-31T04:03:46.778Z,100107.00
2022-12-31T04:04:48.940Z,100108.66
2022-12-31T04:05:55.699Z,100101.97
2022-12-31T04:06:57.986Z,100102.44
2022-12-31T04:08:00.513Z,100104.97
2022-12-31T04:09:02.966Z,100106.84
2022-12-31T04:10:07.777Z,100106.78
2022-12-31T04:11:10.165Z,100105.25
2022-12-31T04:12:12.395Z,100110.63
2022-12-31T04:13:14.791Z,100103.44
2022-12-31T04:14:17.523Z,100113.94
2022-12-31T04:15:21.296Z,100101.69
2022-12-31T04:16:23.699Z,100106.97
2022-12-31T04:17:26.289Z,100100.03
2022-12-31T04:18:28.508Z,100097.38
2022-12-31T04:19:31.092Z,100096.50
2022-12-31T04:20:33.242Z,100099.91
2022-12-31T04:21:35.885Z,100091.09
2022-12-31T04:22:38.290Z,100092.97
2022-12-31T04:23:40.464Z,100101.13
2022-12-31T04:24:43.808Z,100093.09
2022-12-31T04:25:46.052Z,100085.84
2022-12-31T04:26:48.504Z,100093.03
2022-12-31T04:27:50.657Z,100088.75
2022-12-31T04:28:52.872Z,100096.50
2022-12-31T04:29:55.410Z,100090.19
2022-12-31T04:30:57.566Z,100085.94
2022-12-31T04:31:59.823Z,100095.66
2022-12-31T04:33:02.224Z,100093.94
2022-12-31T04:34:04.527Z,100090.41
2022-12-31T04:35:07.794Z,100089.69
2022-12-31T04:36:10.286Z,100086.53
2022-12-31T04:37:12.442Z,100092.56
2022-12-31T04:38:14.787Z,100081.00
2022-12-31T04:39:17.210Z,100078.41
2022-12-31T04:40:19.754Z,100080.50
2022-12-31T04:41:22.087Z,100082.38
2022-12-31T04:42:24.317Z,100079.59
2022-12-31T04:43:26.689Z,100082.31
2022-12-31T04:44:29.111Z,100080.28
2022-12-31T04:45:31.376Z,100077.53
2022-12-31T04:46:34.020Z,100080.88
2022-12-31T04:47:36.185Z,100081.59
2022-12-31T04:48:39.016Z,100072.91
2022-12-31T04:49:41.360Z,100074.56
2022-12-31T04:50:43.527Z,100066.31
2022-12-31T04:51:46.003Z,100066.16
2022-12-31T04:52:48.140Z,100065.13
2022-12-31T04:53:50.833Z,100062.38
2022-12-31T04:54:53.363Z,100064.34
2022-12-31T04:55:55.973Z,100067.13
2022-12-31T04:56:58.317Z,100068.91
2022-12-31T04:58:00.520Z,100068.69
2022-12-31T04:59:04.352Z,100079.09
2022-12-31T05:00:08.256Z,100083.44
2022-12-31T05:01:11.212Z,100081.78
2022-12-31T05:02:13.903Z,100091.84
2022-12-31T05:03:17.569Z,100088.00
2022-12-31T05:04:19.784Z,100085.97
2022-12-31T05:05:22.350Z,100083.38
2022-12-31T05:06:24.584Z,100079.59
2022-12-31T05:07:27.018Z,100078.88
2022-12-31T05:08:29.613Z,100079.00
2022-12-31T05:09:32.004Z,100072.25
2022-12-31T05:10:34.265Z,100072.06
2022-12-31T05:11:37.885Z,100073.25
2022-12-31T05:12:40.256Z,100091.84
2022-12-31T05:13:42.886Z,100086.50
2022-12-31T05:14:45.254Z,100081.06
2022-12-31T05:15:47.720Z,100091.47
2022-12-31T05:16:50.588Z,100073.66
2022-12-31T05:17:52.825Z,100082.78
2022-12-31T05:18:55.216Z,100080.91
2022-12-31T05:19:57.630Z,100080.03
2022-12-31T05:21:00.529Z,100070.19
2022-12-31T05:22:22.036Z,100069.03
2022-12-31T05:23:24.383Z,100073.38
2022-12-31T05:24:26.955Z,100072.78
2022-12-31T05:25:29.783Z,100072.41
2022-12-31T05:26:31.981Z,100075.81
2022-12-31T05:27:34.423Z,100081.00
2022-12-31T05:28:36.615Z,100084.34
2022-12-31T05:29:39.003Z,100075.34
2022-12-31T05:30:42.062Z,100081.44
2022-12-31T05:31:44.308Z,100085.78
2022-12-31T05:32:47.158Z,100082.31
2022-12-31T05:33:49.406Z,100078.59
2022-12-31T05:34:53.563Z,100080.31
2022-12-31T05:35:58.474Z,100086.41
2022-12-31T05:37:00.746Z,100096.25
2022-12-31T05:38:03.387Z,100089.25
2022-12-31T05:39:06.427Z,100084.69
2022-12-31T05:40:09.688Z,100079.88
2022-12-31T05:41:12.979Z,100083.28
2022-12-31T05:42:15.143Z,100082.50
2022-12-31T05:43:17.349Z,100080.59
2022-12-31T05:44:19.511Z,100084.06
2022-12-31T05:45:28.343Z,100077.66
2022-12-31T05:46:32.640Z,100082.09
2022-12-31T05:47:35.017Z,100078.41
2022-12-31T05:48:37.446Z,100082.75
2022-12-31T05:49:39.739Z,100085.44
2022-12-31T05:50:42.097Z,100088.84
2022-12-31T05:51:46.072Z,100092.28
2022-12-31T05:52:48.397Z,100075.50
2022-12-31T05:53:50.747Z,100071.72
2022-12-31T05:54:52.917Z,100071.78
2022-12-31T05:55:55.352Z,100061.84
2022-12-31T05:56:57.568Z,100060.19
2022-12-31T05:57:59.731Z,100068.03
2022-12-31T05:59:01.893Z,100070.53
2022-12-31T06:00:06.282Z,100066.13
2022-12-31T06:01:15.830Z,100061.63
2022-12-31T06:02:18.042Z,100065.75
2022-12-31T06:03:20.321Z,100062.09
2022-12-31T06:04:23.117Z,100063.66
2022-12-31T06:05:26.604Z,100056.81
2022-12-31T06:06:28.971Z,100066.41
2022-12-31T06:07:31.406Z,100062.88
2022-12-31T06:08:33.647Z,100065.34
2022-12-31T06:09:35.819Z,100072.19
2022-12-31T06:10:40.607Z,100076.22
2022-12-31T06:11:43.189Z,100070.06
2022-12-31T06:12:45.542Z,100065.63
2022-12-31T06:13:47.792Z,100074.41
2022-12-31T06:14:49.950Z,100069.97
2022-12-31T06:15:52.797Z,100073.13
2022-12-31T06:16:55.008Z,100084.97
2022-12-31T06:17:57.213Z,100078.19
2022-12-31T06:18:59.903Z,100079.69
2022-12-31T06:20:10.541Z,100073.44
2022-12-31T06:21:16.062Z,100076.75
2022-12-31T06:22:18.274Z,100078.56
2022-12-31T06:23:20.454Z,100083.09
2022-12-31T06:24:23.067Z,100080.22
2022-12-31T06:25:25.307Z,100078.31
2022-12-31T06:26:27.953Z,100076.81
2022-12-31T06:27:30.141Z,100076.03
2022-12-31T06:28:32.626Z,100077.94
2022-12-31T06:29:35.107Z,100077.72
2022-12-31T06:30:37.469Z,100076.94
2022-12-31T06:31:40.866Z,100065.50
2022-12-31T06:32:43.089Z,100069.19
2022-12-31T06:33:46.936Z,100057.34
2022-12-31T06:34:49.307Z,100062.56
2022-12-31T06:35:59.586Z,100057.19
2022-12-31T06:37:01.847Z,100068.91
2022-12-31T06:38:04.407Z,100068.84
2022-12-31T06:39:07.142Z,100058.50
2022-12-31T06:40:10.301Z,100060.25
2022-12-31T06:41:14.379Z,100061.31
2022-12-31T06:42:16.548Z,100060.19
2022-12-31T06:43:19.026Z,100067.97
2022-12-31T06:44:22.587Z,100060.72
2022-12-31T06:45:25.000Z,100061.91
2022-12-31T06:46:27.483Z,100057.50
2022-12-31T06:47:29.815Z,100066.47
2022-12-31T06:48:32.628Z,100064.91
2022-12-31T06:49:34.884Z,100060.66
2022-12-31T06:50:37.114Z,100069.66
2022-12-31T06:51:39.658Z,100064.31
2022-12-31T06:52:41.830Z,100059.94
2022-12-31T06:53:49.540Z,100067.84
2022-12-31T06:54:52.048Z,100059.63
2022-12-31T06:55:54.646Z,100061.03
2022-12-31T06:56:57.605Z,100056.72
2022-12-31T06:57:59.984Z,100051.56
2022-12-31T06:59:03.282Z,100068.63
2022-12-31T07:00:06.900Z,100063.00
2022-12-31T07:01:25.931Z,100067.13
2022-12-31T07:02:56.563Z,100066.00
2022-12-31T07:04:13.761Z,100071.31
2022-12-31T07:05:28.160Z,100069.94
2022-12-31T07:06:44.382Z,100074.25
2022-12-31T07:07:50.294Z,100075.91
2022-12-31T07:09:24.311Z,100066.84
2022-12-31T07:10:38.420Z,100075.41
2022-12-31T07:11:54.490Z,100072.28
2022-12-31T07:13:14.955Z,100076.47
2022-12-31T07:14:26.135Z,100083.94
2022-12-31T07:15:51.616Z,100077.31
2022-12-31T07:16:56.800Z,100084.25
2022-12-31T07:18:19.430Z,100088.22
2022-12-31T07:19:30.923Z,100092.56
2022-12-31T07:20:33.582Z,100086.94
2022-12-31T07:21:38.782Z,100093.88
2022-12-31T07:22:41.610Z,100093.72
2022-12-31T07:23:44.880Z,100088.72
2022-12-31T07:24:47.654Z,100093.47
2022-12-31T07:26:04.663Z,100086.63
2022-12-31T07:27:51.975Z,100081.81
2022-12-31T07:29:12.889Z,100095.22
2022-12-31T07:30:22.549Z,100086.72
2022-12-31T07:31:44.880Z,100083.25
2022-12-31T07:33:34.067Z,100086.38
2022-12-31T07:34:56.184Z,100082.50
2022-12-31T07:36:31.026Z,100085.19
2022-12-31T07:37:51.902Z,100081.72
2022-12-31T07:39:20.101Z,100081.56
2022-12-31T07:40:28.452Z,100077.13
2022-12-31T07:42:01.388Z,100077.47
2022-12-31T07:43:11.452Z,100075.66
2022-12-31T07:44:38.564Z,100074.88
2022-12-31T07:46:02.059Z,100068.25
2022-12-31T07:47:13.868Z,100067.28
2022-12-31T07:48:24.681Z,100061.66
2022-12-31T07:49:27.535Z,100065.91
2022-12-31T07:50:30.643Z,100074.03
2022-12-31T07:51:33.085Z,100068.66
2022-12-31T07:52:35.887Z,100071.19
2022-12-31T07:53:38.728Z,100074.03
2022-12-31T07:54:41.001Z,100076.91
2022-12-31T07:55:43.854Z,100082.84
2022-12-31T07:56:49.215Z,100069.69
2022-12-31T07:57:59.487Z,100074.53
2022-12-31T07:59:39.065Z,100067.00
2022-12-31T08:00:41.539Z,100084.78
2022-12-31T08:02:13.728Z,100077.97
2022-12-31T08:03:40.893Z,100092.41
2022-12-31T08:04:46.081Z,100085.97
2022-12-31T08:06:14.340Z,100096.13
2022-12-31T08:07:42.091Z,100095.94
2022-12-31T08:08:56.505Z,100087.78
2022-12-31T08:10:34.318Z,100090.84
2022-12-31T08:11:51.737Z,100082.78
2022-12-31T08:13:02.618Z,100089.28
2022-12-31T08:14:08.807Z,100085.81
2022-12-31T08:15:16.647Z,100087.38
2022-12-31T08:16:19.476Z,100090.84
2022-12-31T08:17:22.112Z,100094.38
2022-12-31T08:18:24.676Z,100103.16
2022-12-31T08:19:30.871Z,100097.94
2022-12-31T08:20:37.341Z,100099.19
2022-12-31T08:22:08.628Z,100089.38
2022-12-31T08:23:17.293Z,100088.16
2022-12-31T08:24:42.849Z,100095.34
2022-12-31T08:25:50.931Z,100106.78
2022-12-31T08:27:09.890Z,100112.50
2022-12-31T08:28:36.796Z,100112.69
2022-12-31T08:29:59.513Z,100108.25
2022-12-31T08:31:11.204Z,100106.41
2022-12-31T08:32:22.283Z,100092.97
2022-12-31T08:33:46.427Z,100095.56
2022-12-31T08:35:12.764Z,100097.31
2022-12-31T08:36:41.974Z,100110.53
2022-12-31T08:37:45.977Z,100112.63
2022-12-31T08:39:17.003Z,100106.97
2022-12-31T08:40:47.014Z,100115.31
2022-12-31T08:41:53.724Z,100098.44
2022-12-31T08:43:10.789Z,100106.69
2022-12-31T08:44:31.626Z,100101.50
2022-12-31T08:45:39.132Z,100096.91
2022-12-31T08:46:50.092Z,100092.78
2022-12-31T08:48:24.582Z,100101.31
2022-12-31T08:49:28.411Z,100094.72
2022-12-31T08:50:31.263Z,100092.72
2022-12-31T08:51:33.720Z,100097.81
2022-12-31T08:52:37.748Z,100093.88
2022-12-31T08:53:40.072Z,100090.81
2022-12-31T08:54:42.575Z,100080.50
2022-12-31T08:55:48.017Z,100088.59
2022-12-31T08:57:11.778Z,100091.88
2022-12-31T08:58:38.533Z,100089.50
2022-12-31T08:59:56.186Z,100086.34
2022-12-31T09:00:59.735Z,100074.22
2022-12-31T09:02:08.249Z,100098.06
2022-12-31T09:03:23.444Z,100089.34
2022-12-31T09:04:30.038Z,100097.78
2022-12-31T09:05:44.218Z,100085.97
2022-12-31T09:06:58.557Z,100084.31
2022-12-31T09:08:12.743Z,100083.63
2022-12-31T09:09:31.274Z,100097.88
2022-12-31T09:10:44.930Z,100107.72
2022-12-31T09:11:56.350Z,100105.09
2022-12-31T09:13:16.876Z,100083.13
2022-12-31T09:14:42.179Z,100087.69
2022-12-31T09:15:52.671Z,100089.31
2022-12-31T09:17:10.299Z,100094.81
2022-12-31T09:18:12.925Z,100086.88
2022-12-31T09:19:15.430Z,100089.44
2022-12-31T09:20:26.129Z,100090.75
2022-12-31T09:21:29.028Z,100098.53
2022-12-31T09:22:31.568Z,100103.06
2022-12-31T09:23:34.177Z,100096.41
2022-12-31T09:24:36.637Z,100098.78
2022-12-31T09:25:46.850Z,100105.16
2022-12-31T09:27:06.154Z,100104.84
2022-12-31T09:28:16.226Z,100106.69
2022-12-31T09:29:33.872Z,100094.69
2022-12-31T09:31:15.562Z,100103.13
2022-12-31T09:32:44.425Z,100098.59
2022-12-31T09:34:08.017Z,100094.78
2022-12-31T09:35:28.620Z,100110.66
2022-12-31T09:36:34.375Z,100107.97
2022-12-31T09:37:42.629Z,100108.09
2022-12-31T09:39:16.557Z,100111.69
2022-12-31T09:40:28.147Z,100095.03
2022-12-31T09:41:33.212Z,100110.47
2022-12-31T09:43:10.415Z,100110.06
2022-12-31T09:44:35.324Z,100100.75
2022-12-31T09:46:14.791Z,100107.03
2022-12-31T09:47:41.634Z,100112.75
2022-12-31T09:49:23.823Z,100111.66
2022-12-31T09:50:48.631Z,100109.72
2022-12-31T09:52:15.406Z,100097.97
2022-12-31T09:53:19.103Z,100106.50
2022-12-31T09:54:39.981Z,100108.44
2022-12-31T09:55:55.352Z,100104.22
2022-12-31T09:57:06.767Z,100111.66
2022-12-31T09:58:14.480Z,100115.59
2022-12-31T09:59:59.132Z,100113.31
2022-12-31T10:01:26.121Z,100106.00
2022-12-31T10:02:43.550Z,100094.84
2022-12-31T10:04:17.647Z,100101.53
2022-12-31T10:05:46.926Z,100110.09
2022-12-31T10:07:27.749Z,100117.41
2022-12-31T10:08:48.533Z,100115.38
2022-12-31T10:10:12.583Z,100104.00
2022-12-31T10:11:52.583Z,100100.00
2022-12-31T10:13:09.675Z,100098.91
2022-12-31T10:14:32.452Z,100100.81
2022-12-31T10:16:16.870Z,100101.75
2022-12-31T10:17:22.032Z,100103.59
2022-12-31T10:19:07.053Z,100098.94
2022-12-31T10:20:18.196Z,100099.81
2022-12-31T10:21:38.283Z,100099.69
2022-12-31T10:22:56.783Z,100098.38
2022-12-31T10:24:28.053Z,100096.53
2022-12-31T10:25:55.367Z,100100.63
2022-12-31T10:27:16.426Z,100098.69
2022-12-31T10:28:18.989Z,100104.66
2022-12-31T10:29:36.988Z,100113.41
2022-12-31T10:30:48.192Z,100102.63
2022-12-31T10:32:09.004Z,100098.78
2022-12-31T10:33:19.964Z,100103.34
2022-12-31T10:34:22.311Z,100106.34
2022-12-31T10:35:48.011Z,100110.06
2022-12-31T10:37:12.039Z,100098.38
2022-12-31T10:38:24.541Z,100109.78
2022-12-31T10:39:45.542Z,100106.75
2022-12-31T10:41:25.242Z,100092.44
2022-12-31T10:42:55.463Z,100099.75
2022-12-31T10:44:26.130Z,100092.53
2022-12-31T10:45:34.732Z,100096.25
2022-12-31T10:47:32.703Z,100094.34
2022-12-31T10:48:54.824Z,100101.69
2022-12-31T10:50:12.100Z,100093.47
2022-12-31T10:51:29.812Z,100098.44
2022-12-31T10:52:50.777Z,100090.66
2022-12-31T10:54:19.216Z,100080.19
2022-12-31T10:55:59.709Z,100076.28
2022-12-31T10:57:43.267Z,100074.91
2022-12-31T10:58:51.373Z,100094.56
2022-12-31T11:00:11.844Z,100101.25
2022-12-31T11:01:44.661Z,100102.06
2022-12-31T11:03:29.619Z,100111.44
2022-12-31T11:05:09.367Z,100106.50
2022-12-31T11:06:46.302Z,100113.72
2022-12-31T11:08:22.512Z,100109.59
2022-12-31T11:09:55.560Z,100099.88
2022-12-31T11:11:28.545Z,100120.78
2022-12-31T11:13:02.365Z,100099.06
2022-12-31T11:14:29.434Z,100098.78
2022-12-31T11:15:50.248Z,100108.44
2022-12-31T11:17:16.143Z,100118.78
2022-12-31T11:18:36.916Z,100111.31
2022-12-31T11:20:01.469Z,100121.31
2022-12-31T11:21:28.464Z,100108.50
2022-12-31T11:23:09.059Z,100111.38
2022-12-31T11:24:14.302Z,100133.75
2022-12-31T11:25:21.211Z,100127.94
2022-12-31T11:26:50.390Z,100124.91
2022-12-31T11:28:22.724Z,100120.22
2022-12-31T11:29:40.631Z,100129.09
2022-12-31T11:31:02.276Z,100128.22
2022-12-31T11:32:15.611Z,100129.22
2022-12-31T11:33:27.243Z,100140.03
2022-12-31T11:35:08.434Z,100129.03
2022-12-31T11:36:28.876Z,100109.88
2022-12-31T11:37:45.563Z,100126.84
2022-12-31T11:39:10.378Z,100126.84
2022-12-31T11:40:31.005Z,100122.31
2022-12-31T11:41:46.391Z,100125.00
2022-12-31T11:42:54.470Z,100107.66
2022-12-31T11:44:17.984Z,100128.41
2022-12-31T11:45:37.720Z,100123.63
2022-12-31T11:47:16.855Z,100124.38
2022-12-31T11:48:30.690Z,100124.38
2022-12-31T11:50:25.972Z,100126.69
2022-12-31T11:52:10.221Z,100126.13
2022-12-31T11:53:29.356Z,100132.72
2022-12-31T11:54:50.191Z,100126.69
2022-12-31T11:56:01.512Z,100111.94
2022-12-31T11:57:24.593Z,100112.31
2022-12-31T11:58:28.896Z,100117.00
2022-12-31T11:59:31.332Z,100114.41
2022-12-31T12:00:34.670Z,100117.63
2022-12-31T12:01:58.978Z,100109.97
2022-12-31T12:03:06.762Z,100111.00
2022-12-31T12:04:11.277Z,100111.84
2022-12-31T12:05:16.869Z,100116.41
2022-12-31T12:06:25.652Z,100114.19
2022-12-31T12:07:29.912Z,100119.00
2022-12-31T12:08:33.826Z,100117.38
2022-12-31T12:09:36.082Z,100114.56
2022-12-31T12:10:44.182Z,100112.50
2022-12-31T12:11:46.418Z,100120.50
2022-12-31T12:12:48.785Z,100112.97
2022-12-31T12:13:51.158Z,100113.31
2022-12-31T12:14:54.810Z,100115.41
2022-12-31T12:16:03.098Z,100115.72
2022-12-31T12:17:10.471Z,100118.78
2022-12-31T12:18:49.474Z,100120.38
2022-12-31T12:19:55.340Z,100128.28
2022-12-31T12:21:13.873Z,100117.69
2022-12-31T12:22:23.390Z,100121.78
2022-12-31T12:23:28.032Z,100132.97
2022-12-31T12:24:30.901Z,100132.44
2022-12-31T12:25:39.269Z,100143.69
2022-12-31T12:26:44.486Z,100126.97
2022-12-31T12:27:46.683Z,100135.94
2022-12-31T12:28:48.949Z,100144.41
2022-12-31T12:29:51.552Z,100122.81
2022-12-31T12:30:57.056Z,100129.50
2022-12-31T12:32:26.913Z,100135.66
2022-12-31T12:33:42.307Z,100128.97
2022-12-31T12:34:49.621Z,100127.66
2022-12-31T12:35:52.771Z,100129.16
2022-12-31T12:36:55.186Z,100129.72
2022-12-31T12:38:00.307Z,100127.53
2022-12-31T12:39:05.689Z,100134.44
2022-12-31T12:40:33.839Z,100125.59
2022-12-31T12:41:36.503Z,100135.13
2022-12-31T12:42:49.635Z,100129.84
2022-12-31T12:44:14.502Z,100109.25
2022-12-31T12:45:20.535Z,100131.38
2022-12-31T12:46:33.862Z,100118.31
2022-12-31T12:47:36.535Z,100129.25
2022-12-31T12:48:41.720Z,100131.75
2022-12-31T12:49:54.342Z,100126.72
2022-12-31T12:50:56.951Z,100132.41
2022-12-31T12:52:30.160Z,100127.59
2022-12-31T12:54:01.667Z,100116.63
2022-12-31T12:55:27.176Z,100125.75
2022-12-31T12:56:35.832Z,100124.91
2022-12-31T12:57:50.109Z,100118.38
2022-12-31T12:59:07.309Z,100118.84
2022-12-31T13:00:18.203Z,100130.16
2022-12-31T13:01:36.948Z,100125.00
2022-12-31T13:03:01.289Z,100133.50
2022-12-31T13:04:40.040Z,100134.09
2022-12-31T13:05:51.323Z,100144.06
2022-12-31T13:07:12.280Z,100138.44
2022-12-31T13:08:45.463Z,100137.44
2022-12-31T13:10:06.648Z,100140.50
2022-12-31T13:11:11.421Z,100141.34
2022-12-31T13:12:48.951Z,100144.06
2022-12-31T13:13:57.903Z,100147.34
2022-12-31T13:15:32.758Z,100143.78
2022-12-31T13:16:38.105Z,100138.47
2022-12-31T13:18:02.252Z,100138.75
2022-12-31T13:19:19.700Z,100139.13
2022-12-31T13:20:34.099Z,100135.72
2022-12-31T13:21:43.812Z,100142.03
2022-12-31T13:23:06.191Z,100143.44
2022-12-31T13:24:20.172Z,100144.31
2022-12-31T13:25:22.325Z,100127.44
2022-12-31T13:26:31.792Z,100145.38
2022-12-31T13:27:48.015Z,100138.75